Time;durP1;ratioP1;P1;durP2;ratioP2;P2;SDS_P1;SDS_P2;PMS_P1;PMS_P2;Temp;Humidity;BMP_temperature;BMP_pressure;BME280_temperature;BME280_humidity;BME280_pressure;Samples;Min_cycle;Max_cycle;Signal;HPM_P1;HPM_P2
2023/05/12 00:02:09;;;;;;;7.05;1.75;;;;;;;28.12;37.36;100356.78;7400142;19;20050;-93
2023/05/12 00:04:35;;;;;;;7.20;1.92;;;;;;;28.24;37.46;100357.81;7398229;19;20018;-93
2023/05/12 00:07:04;;;;;;;1.67;1.38;;;;;;;28.22;37.15;100360.50;7399986;19;20506;-93
2023/05/12 00:09:31;;;;;;;4.97;2.30;;;;;;;28.18;36.94;100360.16;7401051;19;20011;-93
2023/05/12 00:11:57;;;;;;;3.13;1.90;;;;;;;28.29;37.11;100362.53;7399198;19;20006;-93
2023/05/12 00:14:23;;;;;;;10.98;2.63;;;;;;;28.29;37.33;100367.50;7398716;19;20013;-94
2023/05/12 00:16:50;;;;;;;9.35;2.85;;;;;;;28.29;37.23;100371.13;7397050;19;20007;-93
2023/05/12 00:19:17;;;;;;;7.60;2.95;;;;;;;28.30;36.95;100374.78;7400061;19;20018;-93
2023/05/12 00:21:43;;;;;;;6.18;2.03;;;;;;;28.32;37.03;100369.97;7399120;19;20021;-93
2023/05/12 00:24:10;;;;;;;3.75;1.70;;;;;;;28.39;36.85;100374.84;7398616;19;20015;-94
2023/05/12 00:26:36;;;;;;;2.65;1.75;;;;;;;28.29;37.09;100374.00;7398948;19;20029;-93
2023/05/12 00:29:02;;;;;;;5.47;2.47;;;;;;;28.24;37.14;100372.13;7398501;19;20090;-93
2023/05/12 00:31:29;;;;;;;4.38;2.72;;;;;;;28.18;36.95;100374.47;7397818;19;20038;-93
2023/05/12 00:33:55;;;;;;;4.40;2.17;;;;;;;28.09;36.81;100383.00;7398207;19;20364;-93
2023/05/12 00:36:22;;;;;;;6.13;2.45;;;;;;;28.30;36.96;100383.38;7396451;19;20027;-94
2023/05/12 00:38:48;;;;;;;4.03;2.05;;;;;;;28.29;36.83;100385.47;7398850;19;20337;-90
2023/05/12 00:41:14;;;;;;;4.35;2.25;;;;;;;28.28;36.84;100386.81;7395210;19;20038;-90
2023/05/12 00:43:41;;;;;;;3.53;1.33;;;;;;;28.15;37.16;100392.88;7395985;19;20504;-89
2023/05/12 00:46:07;;;;;;;4.78;2.38;;;;;;;28.17;37.07;100398.75;7396683;19;20050;-90
2023/05/12 00:48:39;;;;;;;2.40;1.83;;;;;;;28.24;37.23;100392.19;7396291;19;20026;-89
2023/05/12 00:51:06;;;;;;;4.65;1.67;;;;;;;28.25;36.97;100393.72;7394651;19;20377;-89
2023/05/12 00:53:32;;;;;;;5.07;1.20;;;;;;;28.31;36.82;100402.06;7394260;19;20014;-89
2023/05/12 00:55:58;;;;;;;2.47;1.80;;;;;;;28.28;36.83;100404.00;7393818;19;20556;-89
2023/05/12 00:58:26;;;;;;;2.45;1.20;;;;;;;28.30;36.96;100403.41;7395497;19;20014;-89
2023/05/12 01:00:52;;;;;;;1.35;1.15;;;;;;;28.25;37.58;100404.41;7395960;19;20029;-88
2023/05/12 01:03:19;;;;;;;4.38;1.73;;;;;;;28.33;37.82;100411.59;7395638;19;20011;-89
2023/05/12 01:06:04;;;;;;;2.45;1.90;;;;;;;28.35;38.46;100411.03;7395188;19;20014;-89
2023/05/12 01:08:32;;;;;;;5.38;1.50;;;;;;;28.63;38.49;100410.56;7393908;19;20018;-88
2023/05/12 01:10:59;;;;;;;6.63;1.10;;;;;;;28.79;38.38;100416.91;7396538;19;20026;-88
2023/05/12 01:13:26;;;;;;;2.60;1.67;;;;;;;28.96;38.71;100425.50;7394902;19;20070;-87
2023/05/12 01:15:54;;;;;;;8.80;1.77;;;;;;;29.20;38.35;100421.78;7397529;19;20015;-88
2023/05/12 01:18:23;;;;;;;5.57;1.55;;;;;;;29.21;38.55;100420.44;7393427;19;20473;-88
2023/05/12 01:20:50;;;;;;;7.05;2.83;;;;;;;29.38;38.75;100429.03;7395197;19;20014;-88
2023/05/12 01:23:19;;;;;;;3.70;1.45;;;;;;;29.50;38.87;100432.88;7394753;19;20488;-88
2023/05/12 01:25:48;;;;;;;19.98;2.90;;;;;;;29.53;38.88;100437.44;7394297;19;20014;-87
2023/05/12 01:28:16;;;;;;;3.97;2.05;;;;;;;29.68;38.49;100431.47;7393138;19;20023;-88
2023/05/12 01:30:43;;;;;;;5.75;2.25;;;;;;;29.85;38.66;100437.19;7392613;19;20504;-88
2023/05/12 01:33:12;;;;;;;7.25;1.73;;;;;;;29.90;38.34;100441.91;7393750;19;20719;-88
2023/05/12 01:35:38;;;;;;;7.00;2.28;;;;;;;29.84;38.57;100444.28;7391788;19;20039;-88
2023/05/12 01:38:04;;;;;;;4.97;2.53;;;;;;;30.07;38.37;100431.69;7393511;19;20042;-88
2023/05/12 01:40:35;;;;;;;3.35;1.52;;;;;;;30.32;37.95;100429.41;7398214;19;20026;-88
2023/05/12 01:43:01;;;;;;;1.27;1.15;;;;;;;30.36;38.05;100444.06;7393053;19;20006;-87
2023/05/12 01:45:32;;;;;;;9.07;2.75;;;;;;;30.22;38.23;100442.94;7392118;19;20015;-88
2023/05/12 01:47:58;;;;;;;7.70;2.33;;;;;;;30.07;38.34;100446.81;7392078;19;20070;-87
2023/05/12 01:50:24;;;;;;;5.47;1.25;;;;;;;30.06;38.43;100464.66;7395208;19;20484;-87
2023/05/12 01:52:50;;;;;;;6.45;2.03;;;;;;;30.26;38.53;100461.25;7391497;19;20018;-87
2023/05/12 01:55:18;;;;;;;13.55;1.92;;;;;;;30.37;38.29;100457.84;7390643;19;20086;-87
2023/05/12 01:57:50;;;;;;;5.43;1.92;;;;;;;30.21;38.27;100465.19;7395830;19;20047;-88
2023/05/12 02:00:16;;;;;;;13.57;2.42;;;;;;;30.24;37.73;100474.69;7395084;19;20018;-88
2023/05/12 02:02:45;;;;;;;9.00;2.00;;;;;;;30.31;37.83;100479.59;7392996;19;20035;-88
2023/05/12 02:05:12;;;;;;;2.97;1.52;;;;;;;30.24;37.61;100480.44;7393407;19;20374;-88
2023/05/12 02:07:40;;;;;;;5.85;2.15;;;;;;;30.11;37.72;100484.47;7394369;19;20014;-87
2023/05/12 02:10:07;;;;;;;3.75;1.10;;;;;;;24.62;47.71;100493.00;7394960;19;20018;-88
2023/05/12 02:12:33;;;;;;;4.13;1.23;;;;;;;29.49;39.54;100485.91;7394012;19;20026;-88
2023/05/12 02:14:59;;;;;;;5.57;2.22;;;;;;;29.99;38.40;100481.38;7392259;19;20055;-89
2023/05/12 02:17:27;;;;;;;2.83;1.83;;;;;;;30.12;38.45;100486.00;7392764;19;20093;-87
2023/05/12 02:19:55;;;;;;;0.98;0.63;;;;;;;30.36;38.06;100481.44;7394191;19;20014;-88
2023/05/12 02:22:22;;;;;;;8.25;2.65;;;;;;;30.42;37.69;100490.53;7392404;19;20030;-88
2023/05/12 02:24:48;;;;;;;3.55;1.48;;;;;;;30.55;37.47;100490.13;7392802;19;20015;-89
2023/05/12 02:27:15;;;;;;;3.15;2.17;;;;;;;30.55;37.38;100487.25;7395296;19;20424;-89
2023/05/12 02:29:41;;;;;;;4.10;2.10;;;;;;;30.73;37.21;100491.53;7393787;19;20501;-87
2023/05/12 02:32:08;;;;;;;2.15;1.90;;;;;;;30.82;36.71;100487.91;7391125;19;20046;-82
2023/05/12 02:34:34;;;;;;;4.57;1.60;;;;;;;30.41;36.74;100494.75;7391655;19;20015;-89
2023/05/12 02:37:00;;;;;;;4.78;2.22;;;;;;;30.25;37.08;100499.22;7390204;19;20025;-88
2023/05/12 02:39:26;;;;;;;2.88;1.38;;;;;;;30.24;37.07;100504.19;7394860;19;20044;-88
2023/05/12 02:41:52;;;;;;;7.90;1.58;;;;;;;30.00;37.23;100502.25;7392656;19;20114;-88
2023/05/12 02:44:21;;;;;;;2.75;1.85;;;;;;;29.67;37.86;100503.88;7392787;19;20021;-88
2023/05/12 02:46:48;;;;;;;20.70;2.67;;;;;;;29.46;37.70;100512.91;7391268;19;20018;-88
2023/05/12 02:49:14;;;;;;;2.28;1.63;;;;;;;29.28;37.45;100505.69;7392421;19;20014;-88
2023/05/12 02:51:40;;;;;;;3.38;1.13;;;;;;;29.30;37.83;100511.59;7391477;19;20035;-88
2023/05/12 02:54:06;;;;;;;5.40;1.40;;;;;;;28.99;37.69;100507.50;7391790;19;20011;-88
2023/05/12 02:56:33;;;;;;;6.20;1.98;;;;;;;29.25;37.25;100509.72;7391317;19;20302;-88
2023/05/12 02:58:59;;;;;;;2.13;1.45;;;;;;;29.32;37.00;100514.63;7391768;19;20010;-88
2023/05/12 03:01:25;;;;;;;6.68;1.58;;;;;;;29.20;36.95;100510.72;7393702;19;20015;-88
2023/05/12 03:03:51;;;;;;;5.75;1.92;;;;;;;28.98;36.85;100514.56;7393492;19;20018;-88
2023/05/12 03:06:18;;;;;;;3.13;1.85;;;;;;;28.94;36.45;100508.50;7396929;19;20035;-88
2023/05/12 03:08:45;;;;;;;10.48;2.10;;;;;;;28.59;36.81;100501.94;7398567;19;20468;-88
2023/05/12 03:11:11;;;;;;;2.92;0.80;;;;;;;27.07;38.96;100515.50;7397950;19;20018;-88
2023/05/12 03:13:38;;;;;;;1.58;1.25;;;;;;;28.56;36.66;100514.56;7397171;19;20011;-88
2023/05/12 03:16:04;;;;;;;2.05;0.98;;;;;;;28.76;36.31;100504.09;7400719;19;20021;-87
2023/05/12 03:18:30;;;;;;;4.45;1.90;;;;;;;28.66;36.09;100511.81;7397444;19;20010;-88
2023/05/12 03:20:57;;;;;;;3.30;1.88;;;;;;;28.53;36.37;100505.03;7397362;19;20046;-89
2023/05/12 03:23:24;;;;;;;4.25;1.42;;;;;;;28.47;36.10;100513.13;7398710;19;20015;-88
2023/05/12 03:25:50;;;;;;;3.78;1.83;;;;;;;28.37;36.51;100514.34;7400584;19;20018;-87
2023/05/12 03:28:16;;;;;;;1.30;1.13;;;;;;;27.12;37.71;100514.53;7398724;19;20011;-88
2023/05/12 03:30:42;;;;;;;5.28;1.27;;;;;;;28.06;36.45;100513.78;7399104;19;20027;-88
2023/05/12 03:33:08;;;;;;;3.47;1.25;;;;;;;28.04;36.55;100519.34;7397865;19;20022;-88
2023/05/12 03:35:35;;;;;;;3.10;2.13;;;;;;;27.98;36.59;100513.06;7397491;19;20018;-88
2023/05/12 03:38:02;;;;;;;0.73;0.73;;;;;;;28.04;37.13;100522.22;7398416;19;20021;-88
2023/05/12 03:40:28;;;;;;;3.70;2.13;;;;;;;28.11;36.99;100518.50;7402088;19;20015;-88
2023/05/12 03:42:54;;;;;;;3.38;1.15;;;;;;;27.99;37.42;100519.56;7396499;19;20015;-88
2023/05/12 03:45:21;;;;;;;6.88;1.88;;;;;;;28.23;37.34;100516.72;7397716;19;20574;-89
2023/05/12 03:47:47;;;;;;;3.33;2.20;;;;;;;28.29;37.17;100514.38;7398572;19;20014;-89
2023/05/12 03:50:14;;;;;;;1.70;1.20;;;;;;;28.30;37.41;100507.31;7401474;19;20180;-89
2023/05/12 03:52:41;;;;;;;5.28;1.38;;;;;;;28.28;37.74;100512.88;7397462;19;20476;-89
2023/05/12 03:55:08;;;;;;;4.70;1.30;;;;;;;28.19;37.77;100513.50;7397001;19;20031;-88
2023/05/12 03:57:35;;;;;;;9.02;2.90;;;;;;;28.23;37.85;100511.00;7401579;19;20365;-89
2023/05/12 04:00:03;;;;;;;3.88;2.15;;;;;;;28.16;37.41;100508.94;7399028;19;20018;-89
2023/05/12 04:02:38;;;;;;;7.03;1.60;;;;;;;28.22;38.06;100514.47;7398343;19;20039;-88
2023/05/12 04:05:07;;;;;;;6.40;1.42;;;;;;;28.41;37.43;100518.31;7398196;19;20022;-89
2023/05/12 04:07:33;;;;;;;4.03;1.33;;;;;;;28.47;37.48;100524.56;7397410;19;20027;-89
2023/05/12 04:09:59;;;;;;;2.78;1.75;;;;;;;28.50;37.63;100522.66;7399129;19;20014;-89
2023/05/12 04:12:25;;;;;;;4.22;1.67;;;;;;;28.59;37.72;100535.59;7399140;19;20025;-89
2023/05/12 04:14:52;;;;;;;7.85;1.65;;;;;;;28.46;37.69;100534.50;7400528;19;20033;-90
2023/05/12 04:17:18;;;;;;;2.10;1.25;;;;;;;28.46;37.41;100537.38;7396055;19;20018;-88
2023/05/12 04:19:45;;;;;;;2.13;1.48;;;;;;;28.51;38.19;100547.09;7398397;19;20010;-84
2023/05/12 04:22:12;;;;;;;5.50;2.05;;;;;;;28.75;37.93;100554.19;7396011;19;20018;-86
2023/05/12 04:24:39;;;;;;;9.13;1.50;;;;;;;29.05;37.66;100553.91;7394848;19;20014;-87
2023/05/12 04:27:06;;;;;;;1.25;1.15;;;;;;;28.96;38.07;100554.56;7399138;19;20014;-87
2023/05/12 04:29:33;;;;;;;2.75;1.77;;;;;;;29.00;38.12;100560.66;7396859;19;20017;-86
2023/05/12 04:32:00;;;;;;;2.88;1.33;;;;;;;29.04;38.30;100561.00;7395054;19;20027;-86
2023/05/12 04:34:26;;;;;;;7.18;2.30;;;;;;;29.03;38.46;100556.59;7394838;19;20023;-87
2023/05/12 04:36:52;;;;;;;7.05;1.58;;;;;;;28.16;39.82;100571.19;7393304;19;20481;-86
2023/05/12 04:39:19;;;;;;;5.47;2.60;;;;;;;27.78;39.65;100568.50;7395269;19;20501;-87
2023/05/12 04:41:45;;;;;;;2.80;1.63;;;;;;;28.88;38.40;100568.22;7395870;19;20010;-87
2023/05/12 04:44:12;;;;;;;1.17;1.08;;;;;;;29.21;38.00;100575.41;7394808;19;20014;-79
2023/05/12 04:46:39;;;;;;;2.50;1.42;;;;;;;29.30;37.78;100573.97;7393759;19;20010;-83
2023/05/12 04:49:05;;;;;;;1.42;0.85;;;;;;;29.34;37.76;100577.16;7395178;19;20078;-83
2023/05/12 04:51:31;;;;;;;2.75;1.50;;;;;;;27.54;39.67;100574.91;7394269;19;20053;-84
2023/05/12 04:53:58;;;;;;;2.00;0.88;;;;;;;28.86;38.16;100588.13;7394499;19;20021;-83
2023/05/12 04:56:24;;;;;;;2.28;1.52;;;;;;;29.01;37.90;100587.97;7395773;19;20355;-83
2023/05/12 04:58:50;;;;;;;2.90;1.60;;;;;;;29.06;37.98;100589.84;7393558;19;20028;-83
2023/05/12 05:01:17;;;;;;;5.10;1.33;;;;;;;28.50;38.51;100595.03;7393917;19;20018;-83
2023/05/12 05:03:43;;;;;;;1.15;1.05;;;;;;;27.70;39.65;100602.09;7393524;19;20435;-83
2023/05/12 05:06:09;;;;;;;1.95;0.85;;;;;;;28.72;38.85;100599.13;7393737;19;20017;-83
2023/05/12 05:08:36;;;;;;;5.20;1.15;;;;;;;29.27;38.03;100598.84;7394544;19;20018;-83
2023/05/12 05:11:03;;;;;;;2.47;0.60;;;;;;;29.47;38.41;100600.56;7393314;19;20354;-83
2023/05/12 05:13:30;;;;;;;2.65;1.58;;;;;;;29.48;38.16;100607.03;7393969;19;20373;-83
2023/05/12 05:15:57;;;;;;;1.45;1.13;;;;;;;29.91;37.72;100604.25;7396341;19;20528;-83
2023/05/12 05:18:24;;;;;;;7.32;2.25;;;;;;;30.07;37.55;100609.81;7391954;19;20018;-83
2023/05/12 05:20:51;;;;;;;2.50;1.83;;;;;;;30.27;37.68;100612.22;7393215;19;20014;-83
2023/05/12 05:23:18;;;;;;;8.13;1.67;;;;;;;30.40;37.26;100620.50;7393932;19;20014;-83
2023/05/12 05:25:44;;;;;;;1.63;1.52;;;;;;;30.29;37.69;100626.00;7392979;19;20396;-83
2023/05/12 05:28:10;;;;;;;1.20;0.88;;;;;;;30.29;37.57;100623.13;7390982;19;20019;-83
2023/05/12 05:30:37;;;;;;;2.28;1.83;;;;;;;30.11;37.18;100633.13;7392555;19;20349;-83
2023/05/12 05:33:04;;;;;;;2.60;1.33;;;;;;;30.16;37.23;100635.00;7393328;19;20356;-83
2023/05/12 05:35:31;;;;;;;3.42;1.50;;;;;;;30.26;37.37;100635.81;7392342;19;20022;-84
2023/05/12 05:37:58;;;;;;;5.78;2.28;;;;;;;30.14;37.24;100640.56;7392593;19;20045;-84
2023/05/12 05:40:25;;;;;;;2.80;0.65;;;;;;;29.94;37.91;100643.31;7395040;19;20027;-83
2023/05/12 05:42:51;;;;;;;7.53;2.10;;;;;;;30.43;37.10;100647.31;7396098;19;20018;-83
2023/05/12 05:45:17;;;;;;;5.28;1.75;;;;;;;30.48;37.19;100640.50;7397224;19;20019;-83
2023/05/12 05:47:43;;;;;;;2.67;1.02;;;;;;;30.20;37.30;100646.81;7392419;19;20027;-84
2023/05/12 05:50:10;;;;;;;4.38;1.48;;;;;;;29.69;37.72;100644.72;7395560;19;20532;-84
2023/05/12 05:52:38;;;;;;;12.32;1.73;;;;;;;29.81;38.16;100645.75;7392864;19;20022;-84
2023/05/12 05:55:05;;;;;;;3.15;1.45;;;;;;;30.67;36.89;100650.00;7392376;19;20077;-83
2023/05/12 05:57:31;;;;;;;4.75;1.67;;;;;;;31.10;36.21;100650.50;7395786;19;20010;-84
2023/05/12 05:59:59;;;;;;;8.73;1.52;;;;;;;31.28;35.96;100661.31;7393564;19;20011;-84
2023/05/12 06:02:26;;;;;;;9.23;1.50;;;;;;;31.32;36.46;100649.34;7391356;19;20078;-84
2023/05/12 06:04:53;;;;;;;5.43;1.90;;;;;;;31.58;35.70;100650.63;7392051;19;20014;-84
2023/05/12 06:07:19;;;;;;;8.77;2.33;;;;;;;31.52;36.03;100655.91;7389521;19;20018;-84
2023/05/12 06:09:45;;;;;;;3.17;2.10;;;;;;;31.59;35.88;100655.78;7390263;19;20014;-84
2023/05/12 06:12:11;;;;;;;6.45;3.17;;;;;;;31.73;36.11;100671.25;7390391;19;20018;-84
2023/05/12 06:14:38;;;;;;;5.32;1.75;;;;;;;31.76;36.18;100666.41;7392322;19;20046;-84
2023/05/12 06:17:04;;;;;;;8.98;2.33;;;;;;;31.56;36.03;100673.50;7388608;19;20029;-84
2023/05/12 06:19:30;;;;;;;6.75;2.38;;;;;;;31.58;35.71;100671.53;7392122;19;20029;-83
2023/05/12 06:21:56;;;;;;;5.75;2.25;;;;;;;31.54;36.18;100682.00;7390132;19;20019;-84
2023/05/12 06:24:23;;;;;;;6.10;1.73;;;;;;;31.77;35.81;100679.47;7392529;19;20476;-84
2023/05/12 06:26:50;;;;;;;9.65;1.80;;;;;;;31.68;36.26;100685.97;7395506;19;20015;-84
2023/05/12 06:29:16;;;;;;;3.95;1.65;;;;;;;31.15;36.66;100679.00;7393468;19;20035;-84
2023/05/12 06:31:42;;;;;;;5.68;2.00;;;;;;;31.60;36.29;100682.47;7392731;19;20485;-84
2023/05/12 06:34:08;;;;;;;3.17;1.70;;;;;;;31.38;36.65;100690.13;7396987;19;20021;-84
2023/05/12 06:36:34;;;;;;;3.95;1.10;;;;;;;31.67;36.59;100684.44;7398374;19;20035;-84
2023/05/12 06:39:01;;;;;;;3.08;1.90;;;;;;;31.93;36.00;100689.31;7401186;19;20018;-85
2023/05/12 06:41:27;;;;;;;6.93;2.13;;;;;;;32.17;35.50;100691.16;7413688;19;20006;-84
2023/05/12 06:43:53;;;;;;;6.97;1.77;;;;;;;32.30;36.00;100692.81;7426955;19;20074;-84
2023/05/12 06:46:27;;;;;;;4.80;1.65;;;;;;;32.67;35.87;100703.56;7426623;19;20039;-84
2023/05/12 06:48:54;;;;;;;4.60;1.67;;;;;;;32.70;35.26;100710.97;7421981;19;20082;-84
2023/05/12 06:51:21;;;;;;;3.33;1.58;;;;;;;32.67;35.07;100712.22;7393856;19;20007;-84
2023/05/12 06:53:47;;;;;;;0.82;0.73;;;;;;;32.11;35.65;100716.66;7393193;19;20021;-85
2023/05/12 06:56:15;;;;;;;3.20;1.13;;;;;;;33.21;35.02;100714.63;7392709;19;20106;-85
2023/05/12 06:58:42;;;;;;;10.70;2.63;;;;;;;33.33;34.92;100721.25;7391230;19;20021;-85
2023/05/12 07:01:09;;;;;;;1.20;0.70;;;;;;;33.21;34.82;100726.16;7388372;19;20006;-85
2023/05/12 07:03:35;;;;;;;8.27;2.05;;;;;;;33.36;35.09;100720.00;7243282;19;2881996;-86
2023/05/12 07:06:01;;;;;;;2.92;1.25;;;;;;;32.94;34.69;100722.75;7390459;19;20017;-86
2023/05/12 07:08:27;;;;;;;4.57;1.73;;;;;;;33.48;34.18;100723.75;7389130;19;20037;-85
2023/05/12 07:10:53;;;;;;;2.50;1.60;;;;;;;33.89;33.59;100716.50;7390546;19;20018;-86
2023/05/12 07:13:20;;;;;;;5.32;1.88;;;;;;;34.33;33.72;100715.84;7390557;19;20094;-85
2023/05/12 07:15:46;;;;;;;4.35;0.98;;;;;;;34.44;33.25;100718.03;7395510;19;20111;-85
2023/05/12 07:18:12;;;;;;;2.65;0.77;;;;;;;34.22;33.08;100717.31;7391073;19;20018;-84
2023/05/12 07:20:38;;;;;;;6.05;1.17;;;;;;;34.04;32.75;100721.91;7390911;19;20047;-85
2023/05/12 07:23:04;;;;;;;0.95;0.28;;;;;;;33.64;33.23;100727.78;7392160;19;20050;-85
2023/05/12 07:25:31;;;;;;;2.80;0.82;;;;;;;32.60;34.22;100736.22;7391353;19;20015;-85
2023/05/12 07:27:57;;;;;;;3.70;0.65;;;;;;;33.47;33.55;100742.44;7397762;19;20476;-85
2023/05/12 07:30:23;;;;;;;3.88;0.90;;;;;;;33.46;33.26;100741.69;7394232;19;20015;-86
2023/05/12 07:32:49;;;;;;;2.47;0.90;;;;;;;33.32;33.06;100745.72;7391528;19;20015;-86
2023/05/12 07:35:15;;;;;;;3.38;1.05;;;;;;;33.11;33.31;100751.44;7390698;19;20010;-86
2023/05/12 07:37:41;;;;;;;2.10;1.35;;;;;;;32.92;33.12;100752.97;7390095;19;20014;-86
2023/05/12 07:40:08;;;;;;;3.22;0.70;;;;;;;32.78;33.30;100751.97;7392553;19;20018;-86
2023/05/12 07:42:34;;;;;;;2.20;0.80;;;;;;;32.61;33.68;100745.63;7390316;19;20457;-86
2023/05/12 07:45:00;;;;;;;2.72;1.50;;;;;;;31.62;34.28;100752.50;7391089;19;20018;-86
2023/05/12 07:47:27;;;;;;;3.83;1.02;;;;;;;32.22;34.76;100747.75;7390301;19;20019;-86
2023/05/12 07:49:53;;;;;;;4.90;1.30;;;;;;;31.48;35.74;100753.53;7393734;19;20039;-87
2023/05/12 07:52:19;;;;;;;0.57;0.57;;;;;;;32.72;34.21;100745.75;7396084;19;20025;-87
2023/05/12 07:54:45;;;;;;;1.58;0.50;;;;;;;32.41;34.29;100747.75;7399074;19;20022;-87
2023/05/12 07:57:12;;;;;;;0.85;0.52;;;;;;;32.38;34.60;100748.22;7399987;19;20049;-86
2023/05/12 07:59:38;;;;;;;2.03;0.98;;;;;;;32.84;33.78;100757.41;7399455;19;20015;-87
2023/05/12 08:02:04;;;;;;;1.33;0.80;;;;;;;32.96;33.75;100743.88;7401877;19;20018;-87
2023/05/12 08:04:30;;;;;;;3.85;1.05;;;;;;;33.43;33.15;100759.50;7402503;19;20022;-87
2023/05/12 08:06:56;;;;;;;7.07;0.77;;;;;;;33.89;32.77;100748.31;7401974;19;20348;-87
2023/05/12 08:09:22;;;;;;;2.40;1.35;;;;;;;33.99;32.88;100754.00;7399379;19;20014;-86
2023/05/12 08:11:49;;;;;;;4.15;1.50;;;;;;;34.31;32.97;100751.19;7401496;19;20021;-87
2023/05/12 08:14:15;;;;;;;5.80;1.08;;;;;;;34.50;32.66;100758.19;7398938;19;20014;-86
2023/05/12 08:16:44;;;;;;;0.88;0.70;;;;;;;34.25;32.44;100750.03;7396666;19;20583;-87
2023/05/12 08:19:11;;;;;;;3.40;0.93;;;;;;;34.40;32.02;100754.59;7399114;19;20373;-88
2023/05/12 08:21:37;;;;;;;2.60;0.60;;;;;;;34.35;32.04;100750.69;7398134;19;20094;-87
2023/05/12 08:24:04;;;;;;;2.70;1.38;;;;;;;34.37;32.41;100753.75;7396767;19;20524;-86
2023/05/12 08:26:30;;;;;;;3.05;0.55;;;;;;;34.60;32.01;100755.97;7398022;19;20403;-86
2023/05/12 08:28:56;;;;;;;1.17;0.77;;;;;;;34.57;31.99;100751.44;7397548;19;20043;-86
2023/05/12 08:31:23;;;;;;;8.88;1.48;;;;;;;34.43;31.87;100756.28;7398852;19;20022;-85
2023/05/12 08:33:49;;;;;;;1.55;1.05;;;;;;;34.36;31.90;100755.09;7402134;19;20359;-86
2023/05/12 08:36:15;;;;;;;4.10;0.88;;;;;;;34.25;31.99;100768.16;7395693;19;20006;-85
2023/05/12 08:38:41;;;;;;;1.83;1.17;;;;;;;34.38;31.77;100763.16;7396501;19;20014;-84
2023/05/12 08:41:30;;;;;;;3.70;1.27;;;;;;;34.28;31.88;100761.09;7395733;19;20670;-86
2023/05/12 08:43:58;;;;;;;0.93;0.75;;;;;;;34.46;31.90;100773.13;7396915;19;20070;-86
2023/05/12 08:46:24;;;;;;;0.65;0.20;;;;;;;34.43;32.18;100771.50;7395199;19;20015;-85
2023/05/12 08:48:52;;;;;;;0.95;0.75;;;;;;;34.58;31.57;100773.22;7397207;19;20360;-87
2023/05/12 08:51:19;;;;;;;1.05;0.95;;;;;;;33.87;32.47;100779.97;7395234;19;20356;-86
2023/05/12 08:53:47;;;;;;;1.00;0.75;;;;;;;34.33;32.27;100768.69;7396804;19;20011;-86
2023/05/12 08:56:16;;;;;;;1.15;0.75;;;;;;;34.09;32.15;100769.94;7395956;19;20107;-85
2023/05/12 08:58:44;;;;;;;1.27;0.68;;;;;;;34.05;31.89;100772.56;7397076;19;20409;-86
2023/05/12 09:01:11;;;;;;;1.20;0.50;;;;;;;34.23;32.47;100770.91;7396099;19;20058;-86
2023/05/12 09:03:37;;;;;;;0.63;0.50;;;;;;;34.40;31.97;100769.84;7393954;19;20014;-86
2023/05/12 09:06:04;;;;;;;4.88;1.15;;;;;;;34.41;31.72;100768.47;7395161;19;20006;-86
2023/05/12 09:08:32;;;;;;;0.35;0.20;;;;;;;34.10;31.64;100771.47;7394917;19;20394;-86
2023/05/12 09:10:59;;;;;;;2.25;0.45;;;;;;;33.91;31.81;100771.56;7396536;19;20014;-86
2023/05/12 09:13:46;;;;;;;1.05;0.52;;;;;;;34.05;31.72;100769.66;7396947;19;20043;-82
2023/05/12 09:16:17;;;;;;;1.90;0.63;;;;;;;34.23;32.34;100768.00;7394714;19;20035;-82
2023/05/12 09:18:57;;;;;;;2.30;0.73;;;;;;;34.35;32.25;100777.47;7393718;19;20018;-83
2023/05/12 09:21:23;;;;;;;4.97;0.85;;;;;;;34.53;31.83;100780.09;7398140;19;20024;-84
2023/05/12 09:24:07;;;;;;;1.23;0.65;;;;;;;34.02;32.80;100782.47;7394030;19;20011;-85
2023/05/12 09:26:46;;;;;;;1.85;0.30;;;;;;;34.22;32.22;100780.94;7397774;19;20018;-84
2023/05/12 09:29:13;;;;;;;0.50;0.30;;;;;;;34.38;32.42;100783.41;7391845;19;20025;-85
2023/05/12 09:31:50;;;;;;;0.40;0.28;;;;;;;34.82;31.90;100783.47;7394509;19;20019;-84
2023/05/12 09:34:17;;;;;;;2.15;0.63;;;;;;;34.77;31.66;100790.38;7397549;19;20043;-85
2023/05/12 09:36:46;;;;;;;2.78;1.27;;;;;;;34.89;31.62;100789.03;7392151;19;20022;-85
2023/05/12 09:39:12;;;;;;;2.47;1.00;;;;;;;35.01;31.44;100783.28;7392743;19;20019;-85
2023/05/12 09:41:40;;;;;;;1.23;0.73;;;;;;;34.94;31.27;100790.03;7393596;19;20509;-85
2023/05/12 09:44:08;;;;;;;0.65;0.52;;;;;;;34.87;30.89;100786.00;7394538;19;20035;-84
2023/05/12 09:46:34;;;;;;;1.40;0.77;;;;;;;34.58;30.83;100790.56;7397058;19;20015;-85
2023/05/12 09:49:02;;;;;;;0.43;0.35;;;;;;;34.52;31.23;100795.97;7394879;19;20025;-84
2023/05/12 09:51:29;;;;;;;1.40;0.63;;;;;;;34.39;31.65;100793.63;7393009;19;20100;-85
2023/05/12 09:53:57;;;;;;;1.80;0.88;;;;;;;34.49;31.77;100797.94;7393141;19;20025;-85
2023/05/12 09:56:26;;;;;;;2.15;0.50;;;;;;;34.86;31.98;100789.53;7394594;19;20014;-85
2023/05/12 09:58:55;;;;;;;1.58;1.08;;;;;;;35.60;31.92;100785.63;7394956;19;20026;-84
2023/05/12 10:01:22;;;;;;;0.88;0.32;;;;;;;36.05;31.46;100788.38;7393967;19;20115;-84
2023/05/12 10:03:54;;;;;;;1.40;0.40;;;;;;;36.58;31.32;100787.19;7394925;19;20014;-84
2023/05/12 10:06:29;;;;;;;1.75;0.60;;;;;;;36.66;31.24;100787.66;7392611;19;20022;-84
2023/05/12 10:09:19;;;;;;;7.30;0.95;;;;;;;36.75;31.15;100788.88;7396744;19;20110;-85
2023/05/12 10:11:46;;;;;;;2.50;0.40;;;;;;;37.01;30.64;100776.63;7394440;19;20018;-85
2023/05/12 10:14:13;;;;;;;1.38;0.28;;;;;;;37.02;30.09;100783.94;7391828;19;20018;-85
2023/05/12 10:16:40;;;;;;;3.10;0.80;;;;;;;36.52;29.62;100777.41;7393687;19;20015;-85
2023/05/12 10:19:09;;;;;;;1.73;0.75;;;;;;;36.54;30.23;100783.31;7395885;19;20023;-86
2023/05/12 10:21:37;;;;;;;1.65;0.55;;;;;;;36.63;30.75;100788.94;7393180;19;20367;-85
2023/05/12 10:24:03;;;;;;;1.85;0.75;;;;;;;36.68;30.14;100790.69;7392619;19;20039;-85
2023/05/12 10:26:32;;;;;;;6.13;0.25;;;;;;;36.49;29.72;100773.63;7393765;19;20472;-84
2023/05/12 10:28:59;;;;;;;1.67;0.77;;;;;;;36.32;29.93;100782.75;7391599;19;20018;-84
2023/05/12 10:31:26;;;;;;;0.60;0.40;;;;;;;36.34;30.66;100782.84;7393485;19;20011;-83
2023/05/12 10:33:57;;;;;;;0.40;0.30;;;;;;;36.33;29.50;100784.25;7391274;19;20074;-83
2023/05/12 10:36:24;;;;;;;0.75;0.20;;;;;;;36.37;30.13;100790.28;7390608;19;20011;-83
2023/05/12 10:38:50;;;;;;;0.35;0.13;;;;;;;36.39;30.23;100794.06;7390684;19;20029;-83
2023/05/12 10:41:27;;;;;;;3.33;0.25;;;;;;;36.48;30.47;100783.69;7392967;19;20014;-83
2023/05/12 10:43:53;;;;;;;0.95;0.68;;;;;;;36.41;29.65;100785.47;7392581;19;20018;-83
2023/05/12 10:46:21;;;;;;;7.43;0.45;;;;;;;36.14;29.84;100787.47;7393629;19;20017;-83
2023/05/12 10:49:07;;;;;;;0.22;0.10;;;;;;;36.08;29.90;100787.09;7391634;19;20014;-84
2023/05/12 10:51:47;;;;;;;0.57;0.00;;;;;;;35.92;29.78;100789.75;7392306;19;20597;-83
2023/05/12 10:54:23;;;;;;;1.83;0.83;;;;;;;35.73;29.60;100799.50;7392338;19;20098;-83
2023/05/12 10:56:50;;;;;;;1.10;0.57;;;;;;;35.19;30.18;100790.25;7392476;19;20018;-83
2023/05/12 10:59:21;;;;;;;1.33;0.30;;;;;;;35.73;30.84;100793.69;7391698;19;20041;-84
2023/05/12 11:02:00;;;;;;;0.20;0.20;;;;;;;36.02;30.59;100801.25;7392634;19;20010;-84
2023/05/12 11:04:49;;;;;;;0.50;0.17;;;;;;;36.29;30.33;100804.31;7391003;19;20019;-84
2023/05/12 11:07:20;;;;;;;2.25;0.63;;;;;;;36.34;30.09;100808.97;7391082;19;20043;-83
2023/05/12 11:09:46;;;;;;;0.65;0.13;;;;;;;36.94;29.56;100809.63;7393996;19;20010;-83
2023/05/12 11:12:13;;;;;;;1.20;0.50;;;;;;;37.26;29.68;100813.59;7392208;19;20094;-83
2023/05/12 11:14:42;;;;;;;1.42;0.40;;;;;;;37.38;29.16;100805.56;7392098;19;20039;-83
2023/05/12 11:17:08;;;;;;;0.82;0.32;;;;;;;37.58;28.57;100814.63;7390832;19;20028;-84
2023/05/12 11:19:36;;;;;;;1.60;0.28;;;;;;;37.06;28.60;100816.13;7392449;19;20014;-83
2023/05/12 11:22:06;;;;;;;0.38;0.25;;;;;;;36.70;28.39;100822.72;7392486;19;20019;-83
2023/05/12 11:24:33;;;;;;;;;;;;;;;36.56;28.57;100821.91;7393139;19;20032;-87
2023/05/12 11:26:59;;;;;;;1.65;0.43;;;;;;;36.24;28.84;100828.66;7401470;19;19914;-92